Time;durP1;ratioP1;P1;durP2;ratioP2;P2;SDS_P1;SDS_P2;PMS_P1;PMS_P2;Temp;Humidity;BMP_temperature;BMP_pressure;BME280_temperature;BME280_humidity;BME280_pressure;Samples;Min_cycle;Max_cycle;Signal;HPM_P1;HPM_P2
2023/04/29 00:01:58;;;;;;;35.78;19.80;;;9.30;99.90;;;;;;5040774;28;20075;-75
2023/04/29 00:04:27;;;;;;;34.08;20.10;;;9.30;99.90;;;;;;5044151;28;20033;-74
2023/04/29 00:06:53;;;;;;;33.92;20.27;;;9.30;99.90;;;;;;5030943;28;20072;-74
2023/04/29 00:09:20;;;;;;;38.00;21.30;;;9.20;99.90;;;;;;5064321;28;20068;-75
2023/04/29 00:11:46;;;;;;;33.50;20.25;;;9.20;99.90;;;;;;5033764;28;20155;-74
2023/04/29 00:14:12;;;;;;;38.65;21.05;;;9.20;99.90;;;;;;5048139;28;20063;-75
2023/04/29 00:16:38;;;;;;;33.83;20.25;;;9.20;99.90;;;;;;5040071;28;20475;-74
2023/04/29 00:19:04;;;;;;;38.67;20.85;;;9.20;99.90;;;;;;5046022;28;20111;-75
2023/04/29 00:21:30;;;;;;;35.63;20.55;;;9.10;99.90;;;;;;5044619;28;20119;-75
2023/04/29 00:23:56;;;;;;;35.17;21.23;;;9.10;99.90;;;;;;5046301;28;20084;-75
2023/04/29 00:26:22;;;;;;;33.47;21.65;;;9.10;99.90;;;;;;5028584;28;20312;-75
2023/04/29 00:28:48;;;;;;;36.50;20.77;;;9.10;99.90;;;;;;5051083;28;20564;-75
2023/04/29 00:31:14;;;;;;;38.22;21.77;;;9.10;99.90;;;;;;5038150;28;20037;-74
2023/04/29 00:33:39;;;;;;;32.90;19.92;;;9.10;99.90;;;;;;5040473;28;20052;-74
2023/04/29 00:36:06;;;;;;;34.47;19.33;;;9.00;99.90;;;;;;5036688;28;20135;-74
2023/04/29 00:38:32;;;;;;;31.67;19.48;;;9.00;99.90;;;;;;5035950;28;20037;-74
2023/04/29 00:40:57;;;;;;;36.35;20.02;;;9.00;99.90;;;;;;5048423;28;20041;-75
2023/04/29 00:43:23;;;;;;;32.35;19.25;;;9.00;99.90;;;;;;5042231;28;20056;-74
2023/04/29 00:45:49;;;;;;;34.13;17.65;;;9.00;99.90;;;;;;5046061;28;20261;-74
2023/04/29 00:48:15;;;;;;;30.38;17.95;;;9.00;99.90;;;;;;5071124;28;20064;-74
2023/04/29 00:50:41;;;;;;;31.00;17.52;;;9.00;99.90;;;;;;5042416;28;20238;-74
2023/04/29 00:53:09;;;;;;;33.50;18.00;;;9.00;99.90;;;;;;5051772;28;20039;-74
2023/04/29 00:55:35;;;;;;;32.35;17.23;;;9.00;99.90;;;;;;5058146;28;20045;-74
2023/04/29 00:58:03;;;;;;;29.33;16.50;;;9.00;99.90;;;;;;5052323;28;20051;-74
2023/04/29 01:00:29;;;;;;;31.20;15.85;;;9.00;99.90;;;;;;5039073;28;20521;-74
2023/04/29 01:02:56;;;;;;;30.63;16.83;;;8.90;99.90;;;;;;5040597;28;20128;-74
2023/04/29 01:05:23;;;;;;;25.92;16.80;;;8.90;99.90;;;;;;5065261;28;20142;-74
2023/04/29 01:08:17;;;;;;;29.45;16.10;;;8.90;99.90;;;;;;5049116;28;20033;-74
2023/04/29 01:11:06;;;;;;;28.52;15.88;;;9.00;99.90;;;;;;5054219;28;20047;-74
2023/04/29 01:13:53;;;;;;;31.95;14.10;;;8.90;99.90;;;;;;5050441;28;20056;-74
2023/04/29 01:16:34;;;;;;;25.90;15.02;;;8.90;99.90;;;;;;5051751;28;20044;-74
2023/04/29 01:19:21;;;;;;;27.95;14.73;;;8.90;99.90;;;;;;5048772;28;20041;-74
2023/04/29 01:21:48;;;;;;;27.90;14.75;;;8.90;99.90;;;;;;5053004;28;20036;-74
2023/04/29 01:24:15;;;;;;;27.27;14.98;;;8.90;99.90;;;;;;5065465;28;20056;-74
2023/04/29 01:26:50;;;;;;;28.50;15.75;;;8.90;99.90;;;;;;5039272;28;20041;-74
2023/04/29 01:29:44;;;;;;;27.40;15.75;;;8.90;99.90;;;;;;5050882;28;20041;-74
2023/04/29 01:32:22;;;;;;;30.60;15.93;;;8.90;99.90;;;;;;5035106;28;20041;-74
2023/04/29 01:35:03;;;;;;;27.63;15.48;;;8.90;99.90;;;;;;5066947;28;20045;-74
2023/04/29 01:37:55;;;;;;;32.20;16.65;;;8.90;99.90;;;;;;5051831;28;20044;-74
2023/04/29 01:40:34;;;;;;;31.40;16.25;;;8.90;99.90;;;;;;5069270;28;20131;-74
2023/04/29 01:43:04;;;;;;;29.30;16.13;;;8.90;99.90;;;;;;5038284;28;20043;-74
2023/04/29 01:45:33;;;;;;;29.23;16.50;;;8.80;99.90;;;;;;5051588;28;20487;-74
2023/04/29 01:47:59;;;;;;;29.63;16.08;;;8.80;99.90;;;;;;5051354;28;20052;-75
2023/04/29 01:50:25;;;;;;;33.28;17.27;;;8.80;99.90;;;;;;5053654;28;20309;-74
2023/04/29 01:52:51;;;;;;;29.02;17.92;;;8.80;99.90;;;;;;5050421;28;20032;-74
2023/04/29 01:55:17;;;;;;;29.58;17.15;;;8.70;99.90;;;;;;5052605;28;20475;-75
2023/04/29 01:57:43;;;;;;;32.58;17.33;;;8.70;99.90;;;;;;5049677;28;20069;-74
2023/04/29 02:00:10;;;;;;;27.42;16.88;;;8.60;99.90;;;;;;5044494;28;20054;-74
2023/04/29 02:02:36;;;;;;;28.17;16.73;;;8.60;99.90;;;;;;5018873;28;20057;-75
2023/04/29 02:05:02;;;;;;;35.70;17.95;;;8.50;99.90;;;;;;5042339;28;20032;-74
2023/04/29 02:07:27;;;;;;;27.42;16.15;;;8.50;99.90;;;;;;5053123;28;20878;-74
2023/04/29 02:09:53;;;;;;;30.05;17.33;;;8.40;99.90;;;;;;5049386;28;20202;-74
2023/04/29 02:12:19;;;;;;;28.95;16.23;;;8.40;99.90;;;;;;5039904;28;20051;-74
2023/04/29 02:14:46;;;;;;;30.08;16.02;;;8.40;99.90;;;;;;5046927;28;20041;-74
2023/04/29 02:17:13;;;;;;;27.25;16.10;;;8.30;99.90;;;;;;5047156;28;20408;-74
2023/04/29 02:19:38;;;;;;;28.27;15.80;;;8.30;99.90;;;;;;5050374;28;20037;-75
2023/04/29 02:22:04;;;;;;;31.58;16.23;;;8.20;99.90;;;;;;5036226;28;20036;-74
2023/04/29 02:24:30;;;;;;;31.80;16.42;;;8.20;99.90;;;;;;5053281;28;20080;-74
2023/04/29 02:26:57;;;;;;;29.23;16.40;;;8.20;99.90;;;;;;5038350;28;20605;-74
2023/04/29 02:29:25;;;;;;;26.88;16.10;;;8.20;99.90;;;;;;5049192;28;20041;-74
2023/04/29 02:31:51;;;;;;;28.15;16.35;;;8.40;99.90;;;;;;5058924;28;20181;-75
2023/04/29 02:34:16;;;;;;;28.90;17.13;;;8.10;99.90;;;;;;5049356;28;20044;-75
2023/04/29 02:36:42;;;;;;;33.00;17.25;;;8.00;99.90;;;;;;5045179;28;20060;-75
2023/04/29 02:39:08;;;;;;;34.20;17.65;;;8.00;99.90;;;;;;5058092;28;20121;-75
2023/04/29 02:41:34;;;;;;;30.73;16.85;;;8.00;99.90;;;;;;5034985;28;20411;-75
2023/04/29 02:43:59;;;;;;;28.55;16.05;;;8.20;99.90;;;;;;5049469;28;20037;-75
2023/04/29 02:46:25;;;;;;;27.52;16.10;;;7.90;99.90;;;;;;5041340;28;20064;-74
2023/04/29 02:48:51;;;;;;;28.42;15.07;;;7.90;99.90;;;;;;5045012;28;20045;-75
2023/04/29 02:51:16;;;;;;;31.25;16.13;;;7.90;99.90;;;;;;5030682;28;20032;-75
2023/04/29 02:53:43;;;;;;;26.60;15.85;;;7.90;99.90;;;;;;5046024;28;20118;-75
2023/04/29 02:56:08;;;;;;;28.33;15.38;;;7.90;99.90;;;;;;5052940;28;20047;-75
2023/04/29 02:58:34;;;;;;;31.92;16.05;;;7.90;99.90;;;;;;5047630;28;20413;-75
2023/04/29 03:01:00;;;;;;;34.00;15.77;;;8.20;99.90;;;;;;5047699;28;20043;-74
2023/04/29 03:03:26;;;;;;;28.77;15.70;;;8.00;99.90;;;;;;5047830;28;20391;-75
2023/04/29 03:05:51;;;;;;;26.58;15.35;;;8.10;99.90;;;;;;5046618;28;20041;-75
2023/04/29 03:08:17;;;;;;;26.08;14.88;;;8.00;99.90;;;;;;5046844;28;20445;-75
2023/04/29 03:10:43;;;;;;;28.60;14.77;;;8.10;99.90;;;;;;5044262;28;20524;-76
2023/04/29 03:13:09;;;;;;;28.88;14.80;;;8.10;99.90;;;;;;5048811;28;20076;-75
2023/04/29 03:15:35;;;;;;;24.73;15.00;;;8.10;99.90;;;;;;5050285;28;20139;-75
2023/04/29 03:18:03;;;;;;;29.75;14.93;;;8.20;99.90;;;;;;5049286;28;20120;-75
2023/04/29 03:20:29;;;;;;;29.13;13.73;;;8.20;99.90;;;;;;5043356;28;20517;-75
2023/04/29 03:22:54;;;;;;;27.05;15.05;;;8.20;99.90;;;;;;5037577;28;20107;-75
2023/04/29 03:25:20;;;;;;;28.58;14.80;;;8.30;99.90;;;;;;5050990;28;20479;-75
2023/04/29 03:27:46;;;;;;;28.75;14.10;;;8.30;99.90;;;;;;5047959;28;20047;-75
2023/04/29 03:30:12;;;;;;;27.55;13.65;;;8.30;99.90;;;;;;5032287;28;20049;-75
2023/04/29 03:32:37;;;;;;;28.67;14.65;;;8.40;99.90;;;;;;5036076;28;20483;-75
2023/04/29 03:35:04;;;;;;;27.70;13.45;;;8.40;99.90;;;;;;5050855;28;20064;-74
2023/04/29 03:37:29;;;;;;;25.40;12.95;;;8.40;99.90;;;;;;5045901;28;20165;-75
2023/04/29 03:39:55;;;;;;;22.40;11.98;;;8.40;99.90;;;;;;5049723;28;20037;-75
2023/04/29 03:42:21;;;;;;;24.10;13.02;;;8.40;99.90;;;;;;5031926;28;20037;-75
2023/04/29 03:44:47;;;;;;;26.45;12.30;;;8.40;99.90;;;;;;5026289;28;20028;-75
2023/04/29 03:47:12;;;;;;;20.58;12.60;;;8.40;99.90;;;;;;5046039;28;20033;-75
2023/04/29 03:49:38;;;;;;;28.02;12.68;;;8.50;99.90;;;;;;5058801;28;21125;-75
2023/04/29 03:52:05;;;;;;;22.98;12.05;;;8.50;99.90;;;;;;5067714;28;20063;-75
2023/04/29 03:54:31;;;;;;;20.60;11.15;;;8.50;99.90;;;;;;5040872;28;20548;-75
2023/04/29 03:56:56;;;;;;;23.00;11.20;;;8.50;99.90;;;;;;5048343;28;20037;-75
2023/04/29 03:59:22;;;;;;;23.10;11.35;;;8.50;99.90;;;;;;5048284;28;20071;-75
2023/04/29 04:01:48;;;;;;;25.85;11.38;;;8.50;99.90;;;;;;5032646;28;20517;-75
2023/04/29 04:04:14;;;;;;;25.33;11.40;;;8.60;99.90;;;;;;5047711;28;20048;-75
2023/04/29 04:06:40;;;;;;;24.25;10.95;;;8.60;99.90;;;;;;5051611;28;20069;-75
2023/04/29 04:09:06;;;;;;;24.42;10.52;;;8.60;99.90;;;;;;5045127;28;20040;-75
2023/04/29 04:11:32;;;;;;;21.33;11.00;;;8.60;99.90;;;;;;5046501;28;20071;-75
2023/04/29 04:13:58;;;;;;;20.33;10.60;;;8.60;99.90;;;;;;5059109;28;20052;-75
2023/04/29 04:16:23;;;;;;;20.15;10.55;;;8.60;99.90;;;;;;5045435;28;20041;-75
2023/04/29 04:18:49;;;;;;;22.33;11.95;;;8.60;99.90;;;;;;5039799;28;20045;-75
2023/04/29 04:21:15;;;;;;;23.17;11.82;;;8.60;99.90;;;;;;5046311;28;20068;-74
2023/04/29 04:23:40;;;;;;;25.08;11.70;;;8.60;99.90;;;;;;5041745;28;20048;-74
2023/04/29 04:26:06;;;;;;;23.42;11.93;;;10.10;99.90;;;;;;5027564;28;20135;-74
2023/04/29 04:28:32;;;;;;;22.58;11.90;;;8.70;99.90;;;;;;5067820;28;20670;-74
2023/04/29 04:30:58;;;;;;;24.10;12.60;;;8.60;99.90;;;;;;5038861;28;20029;-74
2023/04/29 04:33:25;;;;;;;22.63;11.90;;;8.90;99.90;;;;;;5053800;28;20059;-74
2023/04/29 04:35:50;;;;;;;23.42;11.75;;;8.70;99.90;;;;;;5055052;28;20145;-74
2023/04/29 04:38:16;;;;;;;23.63;11.68;;;8.70;99.90;;;;;;5038440;28;20044;-74
2023/04/29 04:40:42;;;;;;;20.58;12.75;;;8.70;99.90;;;;;;5057455;28;20075;-74
2023/04/29 04:43:08;;;;;;;26.95;12.18;;;8.70;99.90;;;;;;5050308;28;20398;-75
2023/04/29 04:45:34;;;;;;;23.38;11.85;;;8.70;99.90;;;;;;5039058;28;20094;-74
2023/04/29 04:48:00;;;;;;;22.38;11.85;;;8.70;99.90;;;;;;5048180;28;20078;-74
2023/04/29 04:50:29;;;;;;;22.73;11.90;;;8.70;99.90;;;;;;5041422;28;20083;-74
2023/04/29 04:52:55;;;;;;;25.23;12.82;;;8.70;99.90;;;;;;5056938;28;20045;-74
2023/04/29 04:55:22;;;;;;;21.20;12.30;;;8.70;99.90;;;;;;5056787;28;20064;-74
2023/04/29 04:57:48;;;;;;;26.00;13.23;;;8.70;99.90;;;;;;5055554;28;20460;-74
2023/04/29 05:00:14;;;;;;;24.27;13.05;;;8.70;99.90;;;;;;5058240;28;20045;-74
2023/04/29 05:02:39;;;;;;;26.02;12.38;;;8.70;99.90;;;;;;5057185;28;20073;-74
2023/04/29 05:05:05;;;;;;;27.38;12.50;;;8.70;99.90;;;;;;5041898;28;20532;-74
2023/04/29 05:07:34;;;;;;;21.55;12.75;;;8.70;99.90;;;;;;5042838;28;20044;-74
2023/04/29 05:10:00;;;;;;;26.25;12.75;;;8.70;99.90;;;;;;5044898;28;20086;-74
2023/04/29 05:12:30;;;;;;;23.27;11.93;;;8.70;99.90;;;;;;5075543;28;20093;-74
2023/04/29 05:14:56;;;;;;;23.10;13.40;;;8.70;99.90;;;;;;5062396;28;20521;-74
2023/04/29 05:17:22;;;;;;;21.95;12.60;;;8.70;99.90;;;;;;5028057;28;20043;-75
2023/04/29 05:19:48;;;;;;;21.92;12.23;;;8.80;99.90;;;;;;5058972;28;20041;-74
2023/04/29 05:22:14;;;;;;;21.60;11.85;;;8.80;99.90;;;;;;5045922;28;20426;-74
2023/04/29 05:24:39;;;;;;;19.65;11.50;;;8.80;99.90;;;;;;5028835;28;20491;-74
2023/04/29 05:27:05;;;;;;;23.23;11.93;;;8.80;99.90;;;;;;5040800;28;20744;-75
2023/04/29 05:29:31;;;;;;;19.17;11.63;;;8.80;99.90;;;;;;5058854;28;20071;-75
2023/04/29 05:31:58;;;;;;;21.40;11.30;;;8.80;99.90;;;;;;5063481;28;20482;-74
2023/04/29 05:34:23;;;;;;;20.10;11.55;;;8.80;99.90;;;;;;5060265;28;20401;-75
2023/04/29 05:36:49;;;;;;;18.85;10.77;;;8.80;99.90;;;;;;5057870;28;20048;-75
2023/04/29 05:39:16;;;;;;;18.60;10.10;;;8.80;99.90;;;;;;5049262;28;20376;-75
2023/04/29 05:41:42;;;;;;;18.55;10.10;;;8.80;99.90;;;;;;5055714;28;20041;-75
2023/04/29 05:44:08;;;;;;;19.10;10.20;;;8.90;99.90;;;;;;5061567;28;20036;-75
2023/04/29 05:46:33;;;;;;;20.23;10.30;;;8.90;99.90;;;;;;5047128;28;20111;-74
2023/04/29 05:48:59;;;;;;;16.27;9.05;;;8.90;99.90;;;;;;5050390;28;20635;-75
2023/04/29 05:51:27;;;;;;;18.05;9.27;;;8.90;99.90;;;;;;5060841;28;20036;-75
2023/04/29 05:53:53;;;;;;;20.23;8.90;;;9.00;99.90;;;;;;5058083;28;20048;-75
2023/04/29 05:56:18;;;;;;;20.40;9.10;;;9.00;99.90;;;;;;5049298;28;20040;-75
2023/04/29 05:58:45;;;;;;;17.95;8.73;;;9.00;99.90;;;;;;5051803;28;20047;-74
2023/04/29 06:01:10;;;;;;;19.20;9.23;;;9.30;99.90;;;;;;5038991;28;20037;-75
2023/04/29 06:03:36;;;;;;;16.42;8.73;;;9.20;99.90;;;;;;5051224;28;20040;-74
2023/04/29 06:06:02;;;;;;;16.73;8.45;;;9.20;99.90;;;;;;5048264;28;20077;-74
2023/04/29 06:08:28;;;;;;;16.33;8.05;;;9.30;99.90;;;;;;5047062;28;20036;-74
2023/04/29 06:10:54;;;;;;;16.98;8.57;;;9.30;99.90;;;;;;5064421;28;20041;-74
2023/04/29 06:13:20;;;;;;;15.40;7.78;;;9.30;99.90;;;;;;5044770;28;20658;-75
2023/04/29 06:15:46;;;;;;;19.02;7.97;;;9.40;99.90;;;;;;5050576;28;20359;-75
2023/04/29 06:18:11;;;;;;;18.15;8.13;;;9.40;99.90;;;;;;5050504;28;20043;-75
2023/04/29 06:20:37;;;;;;;16.55;7.63;;;9.50;99.90;;;;;;5048713;28;20120;-74
2023/04/29 06:23:04;;;;;;;16.40;8.32;;;9.60;99.90;;;;;;5049057;28;20053;-75
2023/04/29 06:25:30;;;;;;;16.65;7.78;;;9.60;99.90;;;;;;5059354;28;20044;-75
2023/04/29 06:27:59;;;;;;;16.38;7.25;;;9.70;99.90;;;;;;5059342;28;20361;-74
2023/04/29 06:30:25;;;;;;;15.75;8.23;;;9.80;99.90;;;;;;5051334;28;20048;-75
2023/04/29 06:32:52;;;;;;;17.15;7.93;;;9.90;99.90;;;;;;5055234;28;20749;-74
2023/04/29 06:35:18;;;;;;;15.63;7.28;;;11.50;99.90;;;;;;5045401;28;20044;-75
2023/04/29 06:37:43;;;;;;;15.57;8.05;;;10.10;99.90;;;;;;5050257;28;20037;-75
2023/04/29 06:40:10;;;;;;;14.10;7.07;;;10.20;99.90;;;;;;5041627;28;20486;-75
2023/04/29 06:42:36;;;;;;;17.25;7.60;;;10.30;99.90;;;;;;5049196;28;21034;-74
2023/04/29 06:45:02;;;;;;;14.38;7.45;;;10.40;99.90;;;;;;5038850;28;20048;-75
2023/04/29 06:47:28;;;;;;;13.68;6.60;;;10.50;99.90;;;;;;5038747;28;20044;-75
2023/04/29 06:49:53;;;;;;;15.48;6.82;;;10.50;99.90;;;;;;5049723;28;20033;-74
2023/04/29 06:52:19;;;;;;;18.67;7.18;;;10.60;99.90;;;;;;5056452;28;20409;-75
2023/04/29 06:54:45;;;;;;;17.15;7.10;;;10.70;99.90;;;;;;5039838;28;20033;-74
2023/04/29 06:57:10;;;;;;;14.07;6.93;;;10.70;99.90;;;;;;5037118;28;20036;-75
2023/04/29 06:59:36;;;;;;;15.00;7.05;;;10.70;99.90;;;;;;5045550;28;20666;-75
2023/04/29 07:02:02;;;;;;;12.32;7.00;;;10.90;99.90;;;;;;5047058;28;20083;-75
2023/04/29 07:04:27;;;;;;;14.02;7.32;;;10.80;99.90;;;;;;5040619;28;20033;-74
2023/04/29 07:06:54;;;;;;;12.63;6.60;;;10.90;99.90;;;;;;5049215;28;20398;-74
2023/04/29 07:09:22;;;;;;;13.65;6.90;;;11.00;99.90;;;;;;5057732;28;20040;-75
2023/04/29 07:11:48;;;;;;;12.43;7.00;;;11.10;99.90;;;;;;5050820;28;20041;-75
2023/04/29 07:14:14;;;;;;;16.20;7.13;;;11.10;99.90;;;;;;5068903;28;20094;-74
2023/04/29 07:16:40;;;;;;;15.10;7.10;;;11.10;99.90;;;;;;5051325;28;20051;-75
2023/04/29 07:19:07;;;;;;;15.57;7.10;;;11.20;99.90;;;;;;5031658;28;20404;-74
2023/04/29 07:21:33;;;;;;;16.55;7.15;;;11.30;99.90;;;;;;5049799;28;20114;-74
2023/04/29 07:24:01;;;;;;;14.30;7.78;;;11.40;99.90;;;;;;5050531;28;20055;-74
2023/04/29 07:26:27;;;;;;;15.38;7.47;;;11.50;99.90;;;;;;5045148;28;20759;-75
2023/04/29 07:28:53;;;;;;;13.52;7.57;;;11.50;99.90;;;;;;5035477;28;20044;-74
2023/04/29 07:31:19;;;;;;;14.02;7.47;;;11.60;99.90;;;;;;5048760;28;20178;-74
2023/04/29 07:33:46;;;;;;;14.10;7.45;;;11.60;99.90;;;;;;5047883;28;20040;-75
2023/04/29 07:36:11;;;;;;;13.75;7.40;;;11.70;99.90;;;;;;5024761;28;20045;-74
2023/04/29 07:38:37;;;;;;;14.52;7.65;;;11.80;99.90;;;;;;5049394;28;20053;-74
2023/04/29 07:41:06;;;;;;;14.43;8.05;;;11.80;99.90;;;;;;5040893;28;20036;-74
2023/04/29 07:43:31;;;;;;;14.52;7.55;;;11.80;99.90;;;;;;5040879;28;20040;-74
2023/04/29 07:45:57;;;;;;;12.85;6.93;;;11.80;99.90;;;;;;5039678;28;20517;-75
2023/04/29 07:48:23;;;;;;;18.05;6.95;;;11.90;99.90;;;;;;5043827;28;20603;-74
2023/04/29 07:50:48;;;;;;;14.93;7.45;;;11.90;99.90;;;;;;5052684;28;20048;-74
2023/04/29 07:53:14;;;;;;;16.00;6.95;;;11.90;99.90;;;;;;5039081;28;20494;-74
2023/04/29 07:55:40;;;;;;;15.00;7.30;;;12.00;99.90;;;;;;5041758;28;20244;-74
2023/04/29 07:58:06;;;;;;;13.18;6.53;;;12.00;99.90;;;;;;5044394;28;20115;-74
2023/04/29 08:00:32;;;;;;;13.90;7.07;;;12.10;99.90;;;;;;5039022;28;20077;-75
2023/04/29 08:02:58;;;;;;;14.77;6.47;;;12.10;99.90;;;;;;5021700;28;20073;-74
2023/04/29 08:05:24;;;;;;;13.20;6.45;;;12.20;99.90;;;;;;5042323;28;20033;-74
2023/04/29 08:07:50;;;;;;;14.43;6.55;;;12.20;99.90;;;;;;5049384;28;20044;-74
2023/04/29 08:10:16;;;;;;;13.88;6.90;;;12.30;99.90;;;;;;5041079;28;20036;-74
2023/04/29 08:12:46;;;;;;;12.27;6.13;;;12.40;99.90;;;;;;5041025;28;20044;-74
2023/04/29 08:15:11;;;;;;;14.18;6.70;;;12.40;99.90;;;;;;5075009;28;20390;-74
2023/04/29 08:17:37;;;;;;;11.88;5.95;;;12.40;99.90;;;;;;5034463;28;20044;-74
2023/04/29 08:20:03;;;;;;;13.93;6.25;;;12.60;99.90;;;;;;5051912;28;20033;-74
2023/04/29 08:22:29;;;;;;;12.90;6.25;;;12.60;99.90;;;;;;5026733;28;20106;-74
2023/04/29 08:24:55;;;;;;;14.52;6.18;;;12.70;99.90;;;;;;5034781;28;20509;-73
2023/04/29 08:27:21;;;;;;;12.80;6.03;;;12.80;99.90;;;;;;5038842;28;20094;-74
2023/04/29 08:29:46;;;;;;;13.93;6.00;;;12.70;99.90;;;;;;5040299;28;20513;-74
2023/04/29 08:32:12;;;;;;;14.55;6.55;;;12.80;99.90;;;;;;5028409;28;20039;-73
2023/04/29 08:34:38;;;;;;;18.92;7.43;;;12.80;99.90;;;;;;5051278;28;20037;-73
2023/04/29 08:37:04;;;;;;;15.43;7.10;;;12.50;99.90;;;;;;5047578;28;20502;-74
2023/04/29 08:39:30;;;;;;;13.00;6.45;;;12.60;99.90;;;;;;5039940;28;20044;-74
2023/04/29 08:41:56;;;;;;;14.10;6.15;;;12.70;99.90;;;;;;5045742;28;20116;-73
2023/04/29 08:44:24;;;;;;;13.55;6.15;;;12.70;99.90;;;;;;5055389;28;20040;-74
2023/04/29 08:46:50;;;;;;;15.20;6.15;;;12.80;99.90;;;;;;5054066;28;20115;-74
2023/04/29 08:49:15;;;;;;;13.75;6.28;;;12.80;99.90;;;;;;5053445;28;20147;-74
2023/04/29 08:51:41;;;;;;;16.02;6.88;;;12.70;99.90;;;;;;5042414;28;20045;-74
2023/04/29 08:54:07;;;;;;;14.32;6.47;;;12.60;99.90;;;;;;5048687;28;20049;-74
2023/04/29 08:56:33;;;;;;;15.73;6.18;;;12.70;99.90;;;;;;5046300;28;20099;-74
2023/04/29 08:59:01;;;;;;;13.93;6.25;;;12.70;99.90;;;;;;5070704;28;20095;-74
2023/04/29 09:01:28;;;;;;;15.13;6.50;;;12.90;99.90;;;;;;5061433;28;20033;-74
2023/04/29 09:04:32;;;;;;;12.98;5.78;;;12.90;99.90;;;;;;5045931;28;20036;-73
2023/04/29 09:06:58;;;;;;;14.82;6.22;;;13.00;99.90;;;;;;5071341;28;20043;-74
2023/04/29 09:09:25;;;;;;;14.52;6.35;;;12.90;99.90;;;;;;5070674;28;20044;-75
2023/04/29 09:11:51;;;;;;;13.13;5.80;;;12.90;99.90;;;;;;5063181;28;20080;-74
2023/04/29 09:14:19;;;;;;;15.82;5.95;;;12.90;99.90;;;;;;5062451;28;20056;-74
2023/04/29 09:16:47;;;;;;;13.40;5.70;;;12.90;99.90;;;;;;5064846;28;20048;-74
2023/04/29 09:19:35;;;;;;;12.50;5.00;;;13.00;99.90;;;;;;5037330;28;20302;-75
2023/04/29 09:22:03;;;;;;;11.90;5.10;;;13.10;99.90;;;;;;5067764;28;20064;-74
2023/04/29 09:24:30;;;;;;;10.35;4.35;;;13.20;99.90;;;;;;5042505;28;20068;-74
2023/04/29 09:26:57;;;;;;;14.10;4.50;;;13.30;99.90;;;;;;5047055;28;20406;-74
2023/04/29 09:29:23;;;;;;;12.55;4.50;;;13.30;99.90;;;;;;5070446;28;20649;-74
2023/04/29 09:31:50;;;;;;;11.32;5.00;;;13.20;99.90;;;;;;5071033;28;20119;-74
2023/04/29 09:34:16;;;;;;;10.25;4.80;;;13.30;99.90;;;;;;5045527;28;20050;-74
2023/04/29 09:36:43;;;;;;;11.52;4.75;;;13.30;99.90;;;;;;5065204;28;20409;-74
2023/04/29 09:39:11;;;;;;;12.25;5.50;;;13.30;99.90;;;;;;5070301;28;20050;-74
2023/04/29 09:41:38;;;;;;;9.85;4.53;;;13.20;99.90;;;;;;5053935;28;20452;-74
2023/04/29 09:44:05;;;;;;;10.52;5.15;;;13.30;99.90;;;;;;5063017;28;20059;-75
2023/04/29 09:46:35;;;;;;;9.93;4.35;;;13.40;99.90;;;;;;5070581;28;20047;-75
2023/04/29 09:49:22;;;;;;;12.98;4.50;;;13.40;99.90;;;;;;5054931;28;20070;-75
2023/04/29 09:51:53;;;;;;;11.63;4.68;;;13.50;99.90;;;;;;5066610;28;20063;-75
2023/04/29 09:54:24;;;;;;;11.20;4.80;;;13.50;99.90;;;;;;5056056;28;20370;-75
2023/04/29 09:56:51;;;;;;;13.60;5.35;;;13.60;99.90;;;;;;5070005;28;20098;-75
2023/04/29 09:59:21;;;;;;;14.23;5.20;;;13.70;99.90;;;;;;5033040;28;20536;-76
2023/04/29 10:01:49;;;;;;;11.95;5.15;;;13.70;99.90;;;;;;5070355;28;20509;-76
2023/04/29 10:04:17;;;;;;;13.32;5.22;;;13.70;99.90;;;;;;5063961;28;20041;-76
2023/04/29 10:06:45;;;;;;;10.23;4.85;;;13.60;99.90;;;;;;5065859;28;20089;-75
2023/04/29 10:09:16;;;;;;;12.05;5.43;;;13.60;99.90;;;;;;5066052;28;20494;-75
2023/04/29 10:11:48;;;;;;;12.38;4.97;;;13.70;99.90;;;;;;5065739;28;20128;-74
2023/04/29 10:14:24;;;;;;;11.82;4.60;;;13.80;99.90;;;;;;5068240;28;20040;-75
2023/04/29 10:17:09;;;;;;;12.68;4.72;;;13.80;99.90;;;;;;5032629;28;20048;-75
2023/04/29 10:19:45;;;;;;;10.88;4.20;;;13.80;99.90;;;;;;5075157;28;20041;-75
2023/04/29 10:22:18;;;;;;;11.20;4.78;;;13.80;99.90;;;;;;5069610;28;20379;-73
2023/04/29 10:24:47;;;;;;;13.10;5.15;;;13.90;99.90;;;;;;5068201;28;20383;-74
2023/04/29 10:27:14;;;;;;;12.85;4.47;;;13.90;99.90;;;;;;5052851;28;20456;-74
2023/04/29 10:29:42;;;;;;;13.13;5.28;;;13.90;99.90;;;;;;5062667;28;20115;-75
2023/04/29 10:32:09;;;;;;;11.35;5.63;;;13.90;99.90;;;;;;5052984;28;20087;-74
2023/04/29 10:34:38;;;;;;;12.02;5.85;;;14.00;99.90;;;;;;5049294;28;20045;-74
2023/04/29 10:37:07;;;;;;;10.25;4.78;;;14.00;99.90;;;;;;5059183;28;20037;-74
2023/04/29 10:39:47;;;;;;;11.10;4.90;;;14.10;99.90;;;;;;5051545;28;20045;-74
2023/04/29 10:42:33;;;;;;;11.30;5.55;;;14.00;99.90;;;;;;5057300;28;20079;-75
2023/04/29 10:45:18;;;;;;;10.93;4.03;;;14.00;99.90;;;;;;5048858;28;20111;-74
2023/04/29 10:48:07;;;;;;;9.70;3.95;;;14.00;99.90;;;;;;5047177;28;20169;-75
2023/04/29 10:50:58;;;;;;;10.68;3.65;;;14.10;99.90;;;;;;5049726;28;20075;-75
2023/04/29 10:53:24;;;;;;;10.77;4.07;;;14.20;99.90;;;;;;5066065;28;20045;-75
2023/04/29 10:55:58;;;;;;;11.10;3.78;;;14.10;99.90;;;;;;5046480;28;20089;-75
2023/04/29 10:58:43;;;;;;;9.60;3.15;;;14.10;99.90;;;;;;5052155;28;20527;-75
2023/04/29 11:01:14;;;;;;;8.30;2.72;;;14.10;99.90;;;;;;5052513;28;20065;-78
2023/04/29 11:04:00;;;;;;;7.72;2.60;;;14.20;99.90;;;;;;5057032;28;20040;-75
2023/04/29 11:06:35;;;;;;;7.55;2.67;;;14.10;99.90;;;;;;5056001;28;20040;-75
2023/04/29 11:09:02;;;;;;;8.05;2.70;;;14.20;99.90;;;;;;5055298;28;20060;-77
2023/04/29 11:11:44;;;;;;;7.75;2.58;;;14.20;99.90;;;;;;5060996;28;20044;-76
2023/04/29 11:14:12;;;;;;;7.17;2.30;;;14.30;99.90;;;;;;5053412;28;20640;-77
2023/04/29 11:16:47;;;;;;;6.63;1.98;;;14.20;99.90;;;;;;5041404;28;20302;-76
2023/04/29 11:19:16;;;;;;;6.50;2.10;;;14.30;99.90;;;;;;5076347;28;20185;-76
2023/04/29 11:21:45;;;;;;;7.60;2.40;;;14.30;99.90;;;;;;5056105;28;20082;-76
2023/04/29 11:24:11;;;;;;;7.88;2.22;;;14.40;99.90;;;;;;5055845;28;20461;-76
2023/04/29 11:26:37;;;;;;;8.00;2.33;;;14.40;99.90;;;;;;5043375;28;20045;-76
2023/04/29 11:29:10;;;;;;;7.28;2.58;;;14.40;99.90;;;;;;5019794;28;20094;-77
2023/04/29 11:31:38;;;;;;;8.70;2.90;;;14.50;99.90;;;;;;5055954;28;20127;-77
2023/04/29 11:34:04;;;;;;;7.50;2.60;;;14.50;99.90;;;;;;5039415;28;20994;-76
2023/04/29 11:36:32;;;;;;;7.10;2.38;;;14.50;99.90;;;;;;5041497;28;20040;-76
2023/04/29 11:39:00;;;;;;;8.55;2.35;;;14.50;99.90;;;;;;5045372;28;20072;-76
2023/04/29 11:41:26;;;;;;;6.00;1.83;;;14.30;99.90;;;;;;5046072;28;20051;-76
2023/04/29 11:43:57;;;;;;;6.68;2.00;;;14.30;99.90;;;;;;5056396;28;20037;-77
2023/04/29 11:46:22;;;;;;;9.73;2.78;;;14.50;99.90;;;;;;5052260;28;20037;-77
2023/04/29 11:48:49;;;;;;;6.90;2.30;;;14.40;99.90;;;;;;5043685;28;20044;-76
2023/04/29 11:51:17;;;;;;;10.60;2.35;;;14.40;99.90;;;;;;5044956;28;20130;-77
2023/04/29 11:53:44;;;;;;;8.65;2.42;;;14.40;99.90;;;;;;5058862;28;20040;-77
2023/04/29 11:56:10;;;;;;;7.43;2.20;;;14.30;99.90;;;;;;5064073;28;20512;-77
2023/04/29 11:58:36;;;;;;;9.02;2.40;;;14.30;99.90;;;;;;5046638;28;20044;-77
2023/04/29 12:01:05;;;;;;;8.50;2.63;;;14.40;99.90;;;;;;5055431;28;20036;-76
2023/04/29 12:03:32;;;;;;;8.93;2.20;;;14.40;99.90;;;;;;5041118;28;20036;-76
2023/04/29 12:06:00;;;;;;;7.88;2.47;;;14.40;99.90;;;;;;5036108;28;20162;-77
2023/04/29 12:08:27;;;;;;;7.00;2.28;;;14.50;99.90;;;;;;5050153;28;20551;-77
2023/04/29 12:10:57;;;;;;;8.35;2.50;;;14.50;99.90;;;;;;5032180;28;20049;-77
2023/04/29 12:13:27;;;;;;;10.73;2.63;;;14.40;99.90;;;;;;5065009;28;20036;-77
2023/04/29 12:15:53;;;;;;;8.18;2.45;;;14.30;99.90;;;;;;5062412;28;20571;-76
2023/04/29 12:18:22;;;;;;;10.80;2.72;;;14.50;99.90;;;;;;5067613;28;20045;-76
2023/04/29 12:20:50;;;;;;;7.93;2.60;;;14.30;99.90;;;;;;5058797;28;20162;-75
2023/04/29 12:23:25;;;;;;;6.90;2.35;;;14.40;99.90;;;;;;5059880;28;20060;-75
2023/04/29 12:25:55;;;;;;;7.15;2.10;;;14.40;99.90;;;;;;5069503;28;20040;-75
2023/04/29 12:28:22;;;;;;;8.10;2.40;;;14.50;99.90;;;;;;5058199;28;20109;-76
2023/04/29 12:30:50;;;;;;;8.55;2.40;;;14.50;99.90;;;;;;5054154;28;20142;-75
2023/04/29 12:33:22;;;;;;;7.57;2.50;;;14.60;99.90;;;;;;5074414;28;20275;-76
2023/04/29 12:35:53;;;;;;;8.10;2.05;;;14.60;99.90;;;;;;5070294;28;20048;-75
2023/04/29 12:38:23;;;;;;;7.15;2.10;;;14.10;99.90;;;;;;5074679;28;20094;-75
2023/04/29 12:40:49;;;;;;;6.50;2.05;;;14.40;99.90;;;;;;5068292;28;20418;-75
2023/04/29 12:43:15;;;;;;;6.00;2.10;;;14.40;99.90;;;;;;5056511;28;20102;-75